Time;durP1;ratioP1;P1;durP2;ratioP2;P2;SDS_P1;SDS_P2;PMS_P1;PMS_P2;Temp;Humidity;BMP_temperature;BMP_pressure;BME280_temperature;BME280_humidity;BME280_pressure;Samples;Min_cycle;Max_cycle;Signal;HPM_P1;HPM_P2
2022/04/15 00:02:10;;;;;;;8.43;5.53;;;;;;;;;;5015543;28;20073;-81
2022/04/15 00:04:36;;;;;;;8.25;5.82;;;;;;;;;;5018874;28;20026;-81
2022/04/15 00:07:02;;;;;;;9.65;6.00;;;;;;;;;;5034840;28;20044;-80
2022/04/15 00:09:30;;;;;;;8.73;6.32;;;;;;;;;;5025367;28;20392;-81
2022/04/15 00:12:00;;;;;;;7.68;5.30;;;;;;;;;;5017517;28;20030;-81
2022/04/15 00:14:26;;;;;;;10.65;5.72;;;;;;;;;;5019342;28;20030;-81
2022/04/15 00:16:52;;;;;;;6.80;4.85;;;;;;;;;;5019536;28;20025;-81
2022/04/15 00:19:18;;;;;;;8.13;4.50;;;;;;;;;;5024387;28;20056;-82
2022/04/15 00:21:46;;;;;;;7.82;5.15;;;;;;;;;;5037127;28;20032;-83
2022/04/15 00:24:12;;;;;;;7.05;4.75;;;;;;;;;;5038527;28;20029;-81
2022/04/15 00:26:38;;;;;;;7.55;4.82;;;;;;;;;;5046595;28;20545;-80
2022/04/15 00:29:06;;;;;;;7.20;5.05;;;;;;;;;;5044595;28;20029;-82
2022/04/15 00:31:32;;;;;;;7.88;5.20;;;;;;;;;;5030220;28;20022;-80
2022/04/15 00:33:58;;;;;;;9.52;5.13;;;;;;;;;;5038171;28;20025;-81
2022/04/15 00:36:24;;;;;;;8.45;5.25;;;;;;;;;;5035382;28;20017;-80
2022/04/15 00:38:50;;;;;;;6.63;4.70;;;;;;;;;;5051235;28;20025;-82
2022/04/15 00:41:16;;;;;;;6.85;4.70;;;;;;;;;;5037191;28;20040;-80
2022/04/15 00:43:43;;;;;;;7.03;4.60;;;;;;;;;;5021892;28;20033;-81
2022/04/15 00:46:09;;;;;;;8.68;5.05;;;;;;;;;;5040256;28;20025;-83
2022/04/15 00:48:36;;;;;;;8.60;5.78;;;;;;;;;;5051414;28;20036;-81
2022/04/15 00:51:02;;;;;;;8.77;5.30;;;;;;;;;;5038319;28;20036;-82
2022/04/15 00:53:32;;;;;;;7.30;5.07;;;;;;;;;;5035784;28;20025;-81
2022/04/15 00:56:01;;;;;;;8.77;4.93;;;;;;;;;;5029617;28;20030;-81
2022/04/15 00:58:28;;;;;;;7.57;4.80;;;;;;;;;;5026099;28;20017;-84
2022/04/15 01:00:57;;;;;;;8.55;5.78;;;;;;;;;;5017693;28;20033;-80
2022/04/15 01:03:24;;;;;;;9.98;6.55;;;;;;;;;;5018516;28;20022;-84
2022/04/15 01:05:51;;;;;;;7.57;5.53;;;;;;;;;;5044060;28;20026;-81
2022/04/15 01:08:21;;;;;;;8.55;5.97;;;;;;;;;;5048883;28;20099;-83
2022/04/15 01:10:47;;;;;;;9.38;6.00;;;;;;;;;;5028416;28;20098;-82
2022/04/15 01:13:14;;;;;;;7.97;5.95;;;;;;;;;;5038511;28;20120;-83
2022/04/15 01:15:40;;;;;;;8.00;6.00;;;;;;;;;;5051949;28;20093;-82
2022/04/15 01:18:07;;;;;;;7.10;5.63;;;;;;;;;;5034625;28;20022;-83
2022/04/15 01:20:33;;;;;;;9.32;6.15;;;;;;;;;;5018946;28;20028;-82
2022/04/15 01:23:12;;;;;;;8.40;5.65;;;;;;;;;;5033570;28;20029;-82
2022/04/15 01:25:39;;;;;;;9.00;5.20;;;;;;;;;;5046228;28;20038;-82
2022/04/15 01:28:05;;;;;;;8.68;5.95;;;;;;;;;;5039337;28;20034;-82
2022/04/15 01:30:31;;;;;;;8.00;5.70;;;;;;;;;;5020588;28;20196;-82
2022/04/15 01:32:57;;;;;;;7.95;6.00;;;;;;;;;;5020913;28;20022;-82
2022/04/15 01:35:23;;;;;;;7.35;5.60;;;;;;;;;;5036929;28;20026;-81
2022/04/15 01:37:50;;;;;;;8.85;5.80;;;;;;;;;;5054165;28;20102;-82
2022/04/15 01:40:17;;;;;;;7.53;5.70;;;;;;;;;;5057746;28;20021;-82
2022/04/15 01:42:44;;;;;;;10.15;7.00;;;;;;;;;;5048852;28;20040;-82
2022/04/15 01:45:10;;;;;;;9.75;6.60;;;;;;;;;;5043987;28;20036;-81
2022/04/15 01:47:36;;;;;;;8.75;6.05;;;;;;;;;;5042458;28;20115;-83
2022/04/15 01:50:06;;;;;;;8.43;5.88;;;;;;;;;;5039477;28;20036;-82
2022/04/15 01:52:32;;;;;;;8.63;6.28;;;;;;;;;;5038687;28;20033;-82
2022/04/15 01:54:58;;;;;;;8.82;6.35;;;;;;;;;;5032553;28;20029;-82
2022/04/15 01:57:24;;;;;;;9.27;5.97;;;;;;;;;;5020684;28;20022;-82
2022/04/15 01:59:50;;;;;;;8.43;6.38;;;;;;;;;;5018863;28;20388;-81
2022/04/15 02:02:16;;;;;;;9.23;5.72;;;;;;;;;;5026722;28;20016;-82
2022/04/15 02:04:42;;;;;;;10.02;6.05;;;;;;;;;;5040483;28;20018;-82
2022/04/15 02:07:08;;;;;;;7.90;5.55;;;;;;;;;;5025323;28;20029;-83
2022/04/15 02:09:34;;;;;;;12.48;6.95;;;;;;;;;;5031461;28;20030;-81
2022/04/15 02:12:00;;;;;;;8.85;6.57;;;;;;;;;;5022094;28;20022;-82
2022/04/15 02:14:26;;;;;;;8.85;6.72;;;;;;;;;;5048650;28;20036;-80
2022/04/15 02:16:53;;;;;;;9.68;7.07;;;;;;;;;;5034183;28;21413;-81
2022/04/15 02:19:22;;;;;;;10.30;6.20;;;;;;;;;;5029701;28;20075;-82
2022/04/15 02:21:49;;;;;;;8.43;6.63;;;;;;;;;;5029211;28;20086;-82
2022/04/15 02:24:15;;;;;;;9.00;6.85;;;;;;;;;;5040219;28;20550;-82
2022/04/15 02:26:41;;;;;;;9.35;7.05;;;;;;;;;;5035476;28;20523;-82
2022/04/15 02:29:07;;;;;;;11.50;7.50;;;;;;;;;;5061032;28;20403;-81
2022/04/15 02:31:33;;;;;;;10.52;7.53;;;;;;;;;;5048043;28;20030;-80
2022/04/15 02:34:00;;;;;;;10.98;8.25;;;;;;;;;;5050134;28;20044;-81
2022/04/15 02:36:26;;;;;;;12.88;9.45;;;;;;;;;;5050347;28;20018;-81
2022/04/15 02:38:52;;;;;;;13.48;9.95;;;;;;;;;;5020297;28;20033;-78
2022/04/15 02:41:18;;;;;;;14.15;10.75;;;;;;;;;;5021631;28;20028;-80
2022/04/15 02:43:44;;;;;;;13.68;10.32;;;;;;;;;;5024541;28;20056;-78
2022/04/15 02:46:11;;;;;;;14.40;10.75;;;;;;;;;;5049470;28;20036;-82
2022/04/15 02:48:37;;;;;;;16.00;12.10;;;;;;;;;;5030513;28;20032;-81
2022/04/15 02:51:03;;;;;;;16.13;11.57;;;;;;;;;;5036411;28;20025;-82
2022/04/15 02:53:31;;;;;;;15.38;12.10;;;;;;;;;;5030342;28;20510;-80
2022/04/15 02:55:57;;;;;;;15.35;12.63;;;;;;;;;;5027901;28;20041;-82
2022/04/15 02:58:23;;;;;;;17.38;12.98;;;;;;;;;;5028686;28;20022;-81
2022/04/15 03:00:50;;;;;;;16.88;13.38;;;;;;;;;;5037687;28;20035;-82
2022/04/15 03:03:16;;;;;;;17.42;14.68;;;;;;;;;;5033421;28;20060;-81
2022/04/15 03:05:42;;;;;;;17.25;14.50;;;;;;;;;;5032956;28;20040;-81
2022/04/15 03:08:08;;;;;;;19.25;16.05;;;;;;;;;;5036865;28;20091;-81
2022/04/15 03:10:34;;;;;;;20.52;15.98;;;;;;;;;;5036678;28;20029;-81
2022/04/15 03:13:01;;;;;;;23.08;16.85;;;;;;;;;;5037356;28;20237;-82
2022/04/15 03:15:27;;;;;;;21.15;16.90;;;;;;;;;;5044592;28;20085;-82
2022/04/15 03:17:53;;;;;;;20.13;16.70;;;;;;;;;;5024587;28;20108;-80
2022/04/15 03:20:19;;;;;;;21.20;16.92;;;;;;;;;;5020064;28;20033;-81
2022/04/15 03:22:45;;;;;;;21.35;17.33;;;;;;;;;;5019276;28;20084;-81
2022/04/15 03:25:13;;;;;;;18.25;16.13;;;;;;;;;;5028530;28;20028;-81
2022/04/15 03:27:39;;;;;;;21.30;17.20;;;;;;;;;;5037114;28;20030;-81
2022/04/15 03:30:06;;;;;;;19.42;16.58;;;;;;;;;;5019596;28;20080;-83
2022/04/15 03:32:32;;;;;;;21.60;16.90;;;;;;;;;;5021495;28;20753;-82
2022/04/15 03:34:59;;;;;;;20.98;16.40;;;;;;;;;;5041369;28;20780;-81
2022/04/15 03:37:25;;;;;;;20.17;16.27;;;;;;;;;;5035705;28;20237;-82
2022/04/15 03:39:52;;;;;;;20.73;17.35;;;;;;;;;;5048669;28;20395;-81
2022/04/15 03:42:18;;;;;;;19.80;16.38;;;;;;;;;;5041826;28;20026;-80
2022/04/15 03:44:44;;;;;;;22.90;17.42;;;;;;;;;;5023413;28;20109;-83
2022/04/15 03:47:10;;;;;;;20.05;16.77;;;;;;;;;;5043202;28;20028;-84
2022/04/15 03:49:36;;;;;;;18.88;16.33;;;;;;;;;;5043306;28;20116;-81
2022/04/15 03:52:03;;;;;;;18.83;15.60;;;;;;;;;;5042654;28;20018;-82
2022/04/15 03:54:29;;;;;;;19.75;15.95;;;;;;;;;;5043400;28;20029;-83
2022/04/15 03:56:55;;;;;;;19.92;16.10;;;;;;;;;;5044341;28;20029;-82
2022/04/15 03:59:21;;;;;;;19.35;15.95;;;;;;;;;;5037407;28;20033;-83
2022/04/15 04:01:47;;;;;;;19.73;15.25;;;;;;;;;;5032902;28;20030;-82
2022/04/15 04:04:13;;;;;;;16.85;14.63;;;;;;;;;;5036730;28;20034;-82
2022/04/15 04:06:39;;;;;;;16.98;15.15;;;;;;;;;;5042025;28;20036;-83
2022/04/15 04:09:05;;;;;;;17.88;15.25;;;;;;;;;;5036167;28;20102;-83
2022/04/15 04:11:31;;;;;;;18.60;15.02;;;;;;;;;;5059558;28;20028;-82
2022/04/15 04:13:57;;;;;;;18.63;14.95;;;;;;;;;;5061243;28;20036;-82
2022/04/15 04:16:23;;;;;;;18.88;15.13;;;;;;;;;;5044159;28;20037;-82
2022/04/15 04:18:49;;;;;;;21.20;16.08;;;;;;;;;;5021899;28;20026;-83
2022/04/15 04:21:15;;;;;;;19.27;15.18;;;;;;;;;;5052264;28;20029;-82
2022/04/15 04:23:41;;;;;;;18.73;14.45;;;;;;;;;;5061678;28;20040;-83
2022/04/15 04:26:07;;;;;;;19.70;15.27;;;;;;;;;;5054598;28;20036;-82
2022/04/15 04:28:33;;;;;;;18.60;15.20;;;;;;;;;;5044087;28;20077;-83
2022/04/15 04:30:59;;;;;;;16.55;14.00;;;;;;;;;;5040122;28;20387;-82
2022/04/15 04:33:25;;;;;;;18.38;14.98;;;;;;;;;;5041509;28;20018;-82
2022/04/15 04:35:51;;;;;;;16.92;13.50;;;;;;;;;;5042559;28;20026;-83
2022/04/15 04:38:17;;;;;;;15.52;13.10;;;;;;;;;;5041241;28;20036;-82
2022/04/15 04:40:44;;;;;;;16.52;12.98;;;;;;;;;;5041732;28;20106;-83
2022/04/15 04:43:10;;;;;;;15.88;12.20;;;;;;;;;;5042358;28;20051;-83
2022/04/15 04:45:36;;;;;;;15.48;12.07;;;;;;;;;;5040958;28;20057;-83
2022/04/15 04:48:03;;;;;;;15.50;11.98;;;;;;;;;;5040553;28;20030;-82
2022/04/15 04:50:29;;;;;;;14.05;11.00;;;;;;;;;;5039228;28;20488;-82
2022/04/15 04:52:55;;;;;;;12.60;10.32;;;;;;;;;;5033708;28;20080;-82
2022/04/15 04:55:21;;;;;;;13.05;10.30;;;;;;;;;;5028425;28;20041;-82
2022/04/15 04:57:47;;;;;;;13.38;10.27;;;;;;;;;;5027922;28;20036;-82
2022/04/15 05:00:15;;;;;;;12.13;9.00;;;;;;;;;;5020755;28;20049;-81
2022/04/15 05:02:41;;;;;;;11.63;8.85;;;;;;;;;;5030104;28;20730;-82
2022/04/15 05:05:07;;;;;;;11.63;8.10;;;;;;;;;;5030454;28;20021;-81
2022/04/15 05:07:33;;;;;;;11.15;7.72;;;;;;;;;;5033827;28;20046;-82
2022/04/15 05:09:59;;;;;;;10.73;7.43;;;;;;;;;;5033374;28;20389;-82
2022/04/15 05:12:25;;;;;;;8.80;6.45;;;;;;;;;;5022177;28;20638;-83
2022/04/15 05:14:51;;;;;;;9.10;6.75;;;;;;;;;;5024331;28;20068;-82
2022/04/15 05:17:18;;;;;;;9.27;6.75;;;;;;;;;;5030238;28;20021;-82
2022/04/15 05:19:45;;;;;;;8.98;7.20;;;;;;;;;;5034591;28;20030;-83
2022/04/15 05:22:12;;;;;;;10.93;7.85;;;;;;;;;;5032519;28;20108;-82
2022/04/15 05:24:38;;;;;;;8.65;6.35;;;;;;;;;;5030149;28;20017;-83
2022/04/15 05:27:04;;;;;;;12.52;7.68;;;;;;;;;;5030727;28;20084;-83
2022/04/15 05:29:30;;;;;;;13.27;7.82;;;;;;;;;;5035612;28;20113;-83
2022/04/15 05:31:56;;;;;;;11.73;8.13;;;;;;;;;;5035810;28;20434;-81
2022/04/15 05:34:22;;;;;;;11.10;8.60;;;;;;;;;;5038960;28;20033;-83
2022/04/15 05:36:48;;;;;;;12.02;9.10;;;;;;;;;;5039569;28;20116;-82
2022/04/15 05:39:14;;;;;;;11.60;8.68;;;;;;;;;;5040402;28;20466;-81
2022/04/15 05:41:40;;;;;;;12.52;8.07;;;;;;;;;;5036970;28;20644;-83
2022/04/15 05:44:08;;;;;;;11.93;8.70;;;;;;;;;;5042437;28;20014;-81
2022/04/15 05:46:37;;;;;;;11.82;8.32;;;;;;;;;;5044547;28;20048;-83
2022/04/15 05:49:03;;;;;;;14.52;9.13;;;;;;;;;;5037065;28;20040;-82
2022/04/15 05:51:29;;;;;;;11.75;8.73;;;;;;;;;;5033786;28;20040;-82
2022/04/15 05:53:55;;;;;;;14.25;8.43;;;;;;;;;;5039537;28;20419;-79
2022/04/15 05:56:21;;;;;;;11.90;7.40;;;;;;;;;;5044595;28;20022;-81
2022/04/15 05:58:47;;;;;;;11.23;7.60;;;;;;;;;;5049133;28;20014;-80
2022/04/15 06:01:13;;;;;;;10.05;8.23;;;;;;;;;;5029509;28;20032;-81
2022/04/15 06:03:39;;;;;;;11.88;8.70;;;;;;;;;;5043793;28;20055;-84
2022/04/15 06:06:05;;;;;;;13.02;8.98;;;;;;;;;;5028092;28;20088;-82
2022/04/15 06:08:32;;;;;;;11.77;8.85;;;;;;;;;;5025695;28;20133;-83
2022/04/15 06:10:58;;;;;;;15.25;9.10;;;;;;;;;;5032962;28;20556;-82
2022/04/15 06:13:25;;;;;;;13.55;9.25;;;;;;;;;;5044439;28;20033;-82
2022/04/15 06:15:53;;;;;;;12.48;9.98;;;;;;;;;;5065768;28;20032;-82
2022/04/15 06:18:20;;;;;;;11.55;9.30;;;;;;;;;;5063234;28;20013;-83
2022/04/15 06:20:46;;;;;;;11.73;8.20;;;;;;;;;;5025382;28;20032;-81
2022/04/15 06:23:12;;;;;;;12.23;8.07;;;;;;;;;;5031309;28;20244;-83
2022/04/15 06:25:38;;;;;;;11.38;8.27;;;;;;;;;;5045923;28;20041;-84
2022/04/15 06:28:05;;;;;;;12.27;7.47;;;;;;;;;;5040466;28;20029;-82
2022/04/15 06:30:31;;;;;;;10.18;7.50;;;;;;;;;;5032946;28;20025;-83
2022/04/15 06:32:57;;;;;;;10.70;7.60;;;;;;;;;;5043601;28;20411;-82
2022/04/15 06:35:23;;;;;;;10.30;7.32;;;;;;;;;;5041095;28;20024;-83
2022/04/15 06:37:49;;;;;;;8.98;6.38;;;;;;;;;;5045255;28;20025;-83
2022/04/15 06:40:15;;;;;;;8.80;6.68;;;;;;;;;;5040701;28;20107;-81
2022/04/15 06:42:41;;;;;;;10.13;6.65;;;;;;;;;;5038205;28;20115;-83
2022/04/15 06:45:07;;;;;;;10.85;6.97;;;;;;;;;;5038580;28;20049;-82
2022/04/15 06:47:33;;;;;;;10.32;7.15;;;;;;;;;;5047174;28;20036;-83
2022/04/15 06:49:59;;;;;;;9.88;6.75;;;;;;;;;;5064353;28;20025;-82
2022/04/15 06:52:25;;;;;;;10.13;6.68;;;;;;;;;;5045757;28;20033;-83
2022/04/15 06:54:51;;;;;;;10.77;6.50;;;;;;;;;;5048550;28;20033;-83
2022/04/15 06:57:17;;;;;;;10.70;6.75;;;;;;;;;;5037646;28;20468;-81
2022/04/15 06:59:43;;;;;;;10.38;6.60;;;;;;;;;;5050519;28;20025;-83
2022/04/15 07:02:09;;;;;;;8.63;5.63;;;;;;;;;;5044377;28;20025;-82
2022/04/15 07:04:35;;;;;;;7.97;5.63;;;;;;;;;;5043881;28;20025;-83
2022/04/15 07:07:01;;;;;;;9.75;6.03;;;;;;;;;;5025132;28;20034;-83
2022/04/15 07:09:27;;;;;;;8.65;5.78;;;;;;;;;;5037832;28;20022;-82
2022/04/15 07:11:54;;;;;;;9.05;5.75;;;;;;;;;;5066863;28;20017;-86
2022/04/15 07:14:20;;;;;;;7.80;5.75;;;;;;;;;;5059375;28;20041;-87
2022/04/15 07:16:46;;;;;;;8.73;6.05;;;;;;;;;;5057650;28;20586;-81
2022/04/15 07:19:12;;;;;;;9.55;5.80;;;;;;;;;;5072544;28;20035;-85
2022/04/15 07:21:38;;;;;;;8.98;6.88;;;;;;;;;;5066999;28;20030;-83
2022/04/15 07:24:05;;;;;;;8.70;6.35;;;;;;;;;;5054538;28;20049;-85
2022/04/15 07:26:31;;;;;;;10.25;6.80;;;;;;;;;;5049311;28;20032;-83
2022/04/15 07:28:57;;;;;;;7.72;5.60;;;;;;;;;;5047106;28;20426;-82
2022/04/15 07:31:24;;;;;;;9.20;5.65;;;;;;;;;;5049094;28;20030;-82
2022/04/15 07:33:50;;;;;;;10.25;5.97;;;;;;;;;;5026379;28;20037;-86
2022/04/15 07:36:31;;;;;;;11.55;6.35;;;;;;;;;;5031318;28;20025;-82
2022/04/15 07:38:57;;;;;;;10.13;7.25;;;;;;;;;;5029644;28;20213;-82
2022/04/15 07:41:24;;;;;;;13.45;8.23;;;;;;;;;;5043141;28;20022;-82
2022/04/15 07:43:50;;;;;;;9.25;7.13;;;;;;;;;;5032718;28;20567;-82
2022/04/15 07:46:17;;;;;;;10.75;8.05;;;;;;;;;;5041124;28;20032;-82
2022/04/15 07:48:43;;;;;;;11.27;8.48;;;;;;;;;;5030578;28;20034;-83
2022/04/15 07:51:09;;;;;;;11.70;8.90;;;;;;;;;;5044043;28;21247;-81
2022/04/15 07:53:35;;;;;;;10.38;8.85;;;;;;;;;;5042891;28;20120;-82
2022/04/15 07:56:01;;;;;;;11.95;9.45;;;;;;;;;;5062262;28;20033;-86
2022/04/15 07:58:28;;;;;;;11.45;8.85;;;;;;;;;;5061889;28;20017;-87
2022/04/15 08:00:54;;;;;;;12.40;9.70;;;;;;;;;;5050514;28;20081;-87
2022/04/15 08:03:21;;;;;;;13.55;10.10;;;;;;;;;;5066346;28;20043;-87
2022/04/15 08:05:47;;;;;;;11.57;9.35;;;;;;;;;;5041234;28;20012;-86
2022/04/15 08:08:13;;;;;;;12.73;9.73;;;;;;;;;;5043993;28;20144;-81
2022/04/15 08:10:40;;;;;;;12.68;10.20;;;;;;;;;;5053905;28;20053;-82
2022/04/15 08:13:06;;;;;;;15.20;10.90;;;;;;;;;;5042649;28;20034;-82
2022/04/15 08:15:32;;;;;;;12.60;10.13;;;;;;;;;;5045137;28;20055;-83
2022/04/15 08:17:58;;;;;;;13.00;10.82;;;;;;;;;;5043151;28;20068;-84
2022/04/15 08:20:26;;;;;;;12.20;10.02;;;;;;;;;;5046597;28;20037;-80
2022/04/15 08:22:52;;;;;;;14.10;10.95;;;;;;;;;;5041757;28;20079;-83
2022/04/15 08:25:18;;;;;;;13.15;10.68;;;;;;;;;;5027227;28;20037;-81
2022/04/15 08:27:44;;;;;;;16.08;11.32;;;;;;;;;;5051856;28;20037;-83
2022/04/15 08:30:10;;;;;;;13.50;10.68;;;;;;;;;;5054319;28;20037;-82
2022/04/15 08:32:36;;;;;;;15.15;12.07;;;;;;;;;;5049532;28;20033;-84
2022/04/15 08:35:03;;;;;;;13.73;11.32;;;;;;;;;;5044605;28;21212;-83
2022/04/15 08:37:29;;;;;;;16.58;10.52;;;;;;;;;;5044814;28;20030;-84
2022/04/15 08:39:55;;;;;;;13.55;10.40;;;;;;;;;;5046911;28;20033;-81
2022/04/15 08:42:22;;;;;;;13.48;9.98;;;;;;;;;;5053237;28;20030;-84
2022/04/15 08:44:50;;;;;;;16.38;11.30;;;;;;;;;;5032075;28;20037;-82
2022/04/15 08:47:17;;;;;;;14.10;10.18;;;;;;;;;;5046982;28;20052;-85
2022/04/15 08:49:43;;;;;;;15.70;10.27;;;;;;;;;;5046870;28;20037;-82
2022/04/15 08:52:10;;;;;;;14.82;9.73;;;;;;;;;;5045195;28;20024;-81
2022/04/15 08:54:36;;;;;;;13.30;11.13;;;;;;;;;;5050835;28;20131;-82
2022/04/15 08:57:02;;;;;;;14.75;10.40;;;;;;;;;;5050574;28;20026;-84
2022/04/15 08:59:28;;;;;;;13.20;9.80;;;;;;;;;;5049221;28;20143;-83
2022/04/15 09:01:55;;;;;;;12.30;9.32;;;;;;;;;;5048883;28;20060;-82
2022/04/15 09:04:21;;;;;;;12.02;8.88;;;;;;;;;;5046401;28;20032;-83
2022/04/15 09:06:55;;;;;;;12.07;9.75;;;;;;;;;;5039602;28;20169;-83
2022/04/15 09:09:24;;;;;;;13.18;8.80;;;;;;;;;;5044259;28;20044;-83
2022/04/15 09:11:51;;;;;;;11.25;8.80;;;;;;;;;;5055960;28;20093;-83
2022/04/15 09:14:17;;;;;;;17.42;9.65;;;;;;;;;;5060868;28;20033;-81
2022/04/15 09:16:50;;;;;;;11.50;7.57;;;;;;;;;;5043314;28;20502;-81
2022/04/15 09:19:16;;;;;;;9.52;6.93;;;;;;;;;;5043660;28;20045;-82
2022/04/15 09:21:50;;;;;;;9.75;7.25;;;;;;;;;;5042799;28;20091;-81
2022/04/15 09:24:17;;;;;;;9.45;7.47;;;;;;;;;;5045909;28;20033;-82
2022/04/15 09:26:46;;;;;;;10.95;7.20;;;;;;;;;;5055741;28;20251;-81
2022/04/15 09:29:15;;;;;;;11.82;7.43;;;;;;;;;;5063766;28;20032;-81
2022/04/15 09:31:45;;;;;;;9.30;7.20;;;;;;;;;;5042485;28;20082;-81
2022/04/15 09:34:11;;;;;;;10.18;7.28;;;;;;;;;;5043486;28;20021;-83
2022/04/15 09:36:37;;;;;;;11.52;6.90;;;;;;;;;;5042868;28;20104;-83
2022/04/15 09:39:04;;;;;;;10.15;7.45;;;;;;;;;;5044903;28;20032;-82
2022/04/15 09:41:31;;;;;;;11.68;8.02;;;;;;;;;;5042057;28;20022;-81
2022/04/15 09:44:03;;;;;;;10.50;7.63;;;;;;;;;;5043349;28;20030;-83
2022/04/15 09:46:31;;;;;;;10.48;7.90;;;;;;;;;;5038907;28;20025;-81
2022/04/15 09:49:02;;;;;;;8.95;6.47;;;;;;;;;;5042774;28;20032;-83
2022/04/15 09:51:37;;;;;;;10.20;6.95;;;;;;;;;;5041759;28;20097;-83
2022/04/15 09:54:04;;;;;;;8.77;6.97;;;;;;;;;;5048881;28;20025;-82
2022/04/15 09:56:34;;;;;;;9.10;6.80;;;;;;;;;;5030548;28;20476;-83
2022/04/15 09:59:05;;;;;;;9.30;6.78;;;;;;;;;;5024015;28;20083;-82
2022/04/15 10:01:33;;;;;;;7.80;5.78;;;;;;;;;;5040571;28;20080;-83
2022/04/15 10:04:00;;;;;;;9.15;6.43;;;;;;;;;;5050882;28;20096;-83
2022/04/15 10:06:27;;;;;;;7.43;3.83;;;;;;;;;;5043454;28;20022;-82
2022/04/15 10:08:54;;;;;;;6.63;3.95;;;;;;;;;;5054525;28;20045;-85
2022/04/15 10:11:20;;;;;;;6.18;3.40;;;;;;;;;;5051483;28;20032;-81
2022/04/15 10:13:46;;;;;;;8.02;4.07;;;;;;;;;;5059498;28;20071;-81
2022/04/15 10:16:13;;;;;;;6.43;3.85;;;;;;;;;;5035102;28;20076;-83
2022/04/15 10:18:39;;;;;;;8.35;5.10;;;;;;;;;;5044739;28;20025;-84
2022/04/15 10:21:06;;;;;;;7.07;5.28;;;;;;;;;;5048290;28;20084;-82
2022/04/15 10:23:33;;;;;;;8.27;5.30;;;;;;;;;;5062629;28;20095;-85
2022/04/15 10:26:01;;;;;;;11.30;5.80;;;;;;;;;;5046828;28;20029;-83
2022/04/15 10:28:42;;;;;;;10.00;8.10;;;;;;;;;;5043951;28;20025;-83
2022/04/15 10:31:12;;;;;;;11.65;8.45;;;;;;;;;;5046057;28;20027;-82
2022/04/15 10:33:42;;;;;;;10.57;8.48;;;;;;;;;;5065749;28;20032;-84
2022/04/15 10:36:12;;;;;;;10.95;8.70;;;;;;;;;;5049333;28;20558;-83
2022/04/15 10:38:58;;;;;;;11.63;9.18;;;;;;;;;;5044524;28;20068;-83
2022/04/15 10:41:24;;;;;;;10.48;7.30;;;;;;;;;;5044541;28;20030;-83
2022/04/15 10:43:59;;;;;;;9.30;7.43;;;;;;;;;;5043715;28;20033;-82
2022/04/15 10:46:32;;;;;;;11.13;8.00;;;;;;;;;;5044659;28;20032;-83
2022/04/15 10:49:02;;;;;;;10.13;7.35;;;;;;;;;;5050553;28;20097;-83
2022/04/15 10:51:32;;;;;;;9.93;7.65;;;;;;;;;;5057976;28;20024;-83
2022/04/15 10:54:17;;;;;;;11.45;8.15;;;;;;;;;;5064306;28;20020;-83
2022/04/15 10:57:03;;;;;;;14.50;11.38;;;;;;;;;;5064463;28;20510;-84
2022/04/15 11:02:24;;;;;;;10.35;7.80;;;;;;;;;;5061411;28;20036;-83
2022/04/15 11:04:51;;;;;;;9.48;7.47;;;;;;;;;;5064162;28;20027;-84
2022/04/15 11:07:25;;;;;;;10.45;7.18;;;;;;;;;;5064293;28;20040;-83
2022/04/15 11:09:51;;;;;;;9.27;7.38;;;;;;;;;;5064841;28;20021;-83
2022/04/15 11:12:35;;;;;;;9.02;7.00;;;;;;;;;;5055145;28;20021;-84
2022/04/15 11:15:02;;;;;;;11.57;7.82;;;;;;;;;;5045298;28;20044;-83
2022/04/15 11:17:41;;;;;;;9.85;7.55;;;;;;;;;;5054607;28;20086;-82
2022/04/15 11:20:09;;;;;;;9.18;6.70;;;;;;;;;;5063883;28;20272;-84
2022/04/15 11:22:39;;;;;;;8.63;6.45;;;;;;;;;;5057979;28;20412;-83
2022/04/15 11:25:09;;;;;;;9.57;6.93;;;;;;;;;;5043678;28;20077;-82
2022/04/15 11:27:38;;;;;;;9.02;7.07;;;;;;;;;;5057292;28;20365;-83
2022/04/15 11:30:05;;;;;;;10.70;7.35;;;;;;;;;;5062855;28;20040;-83
2022/04/15 11:32:31;;;;;;;10.40;7.10;;;;;;;;;;5046555;28;20021;-84
2022/04/15 11:35:03;;;;;;;9.10;6.43;;;;;;;;;;5045511;28;20026;-83
2022/04/15 11:37:29;;;;;;;8.23;6.80;;;;;;;;;;5056714;28;20025;-85
2022/04/15 11:39:58;;;;;;;8.40;6.80;;;;;;;;;;5066385;28;20326;-84
2022/04/15 11:42:24;;;;;;;8.25;6.60;;;;;;;;;;5047742;28;20030;-84
2022/04/15 11:44:50;;;;;;;8.85;6.53;;;;;;;;;;5038518;28;20467;-84
2022/04/15 11:47:23;;;;;;;9.55;6.78;;;;;;;;;;5028993;28;20037;-84
2022/04/15 11:49:51;;;;;;;9.82;7.03;;;;;;;;;;5039598;28;20479;-85
2022/04/15 11:52:25;;;;;;;9.63;6.65;;;;;;;;;;5043022;28;20082;-83
2022/04/15 11:54:51;;;;;;;7.25;5.47;;;;;;;;;;5045688;28;20033;-84
2022/04/15 11:57:17;;;;;;;8.45;6.22;;;;;;;;;;5046417;28;20039;-84
2022/04/15 11:59:44;;;;;;;8.85;6.45;;;;;;;;;;5065701;28;20028;-82
2022/04/15 12:02:12;;;;;;;8.82;6.00;;;;;;;;;;5066645;28;20032;-84
2022/04/15 12:04:48;;;;;;;8.18;5.25;;;;;;;;;;5051337;28;20041;-83
2022/04/15 12:07:15;;;;;;;7.78;6.35;;;;;;;;;;5048303;28;20041;-83
2022/04/15 12:09:44;;;;;;;9.98;6.55;;;;;;;;;;5065758;28;20047;-83
2022/04/15 12:12:10;;;;;;;8.68;6.18;;;;;;;;;;5053558;28;20137;-83
2022/04/15 12:14:40;;;;;;;8.80;5.85;;;;;;;;;;5063894;28;20037;-83
2022/04/15 12:17:07;;;;;;;7.57;6.32;;;;;;;;;;5070653;28;20043;-83
2022/04/15 12:19:33;;;;;;;9.82;7.50;;;;;;;;;;5064734;28;20043;-83
2022/04/15 12:22:01;;;;;;;9.95;6.55;;;;;;;;;;5049057;28;20095;-84
2022/04/15 12:24:30;;;;;;;9.13;7.07;;;;;;;;;;5058746;28;20029;-80
2022/04/15 12:27:00;;;;;;;9.38;7.30;;;;;;;;;;5069751;28;20035;-82
2022/04/15 12:32:16;;;;;;;10.48;7.40;;;;;;;;;;5045137;28;20128;-80
2022/04/15 12:34:46;;;;;;;9.32;7.47;;;;;;;;;;5058423;28;20098;-82
2022/04/15 12:37:34;;;;;;;10.63;7.57;;;;;;;;;;5059578;28;20571;-82
2022/04/15 12:40:20;;;;;;;10.55;7.35;;;;;;;;;;5047116;28;20030;-81
2022/04/15 12:42:48;;;;;;;11.60;8.05;;;;;;;;;;5046731;28;20439;-82
2022/04/15 12:45:16;;;;;;;11.05;7.78;;;;;;;;;;5048268;28;20025;-83
2022/04/15 12:47:43;;;;;;;9.07;6.82;;;;;;;;;;5056252;28;20036;-82
2022/04/15 12:50:25;;;;;;;9.63;6.85;;;;;;;;;;5056474;28;20033;-84
2022/04/15 12:52:52;;;;;;;10.10;7.30;;;;;;;;;;5048541;28;20021;-81
2022/04/15 12:55:44;;;;;;;13.68;7.72;;;;;;;;;;5050208;28;20028;-82
2022/04/15 12:58:29;;;;;;;10.57;8.15;;;;;;;;;;5062285;28;20047;-82
2022/04/15 13:00:59;;;;;;;10.80;8.70;;;;;;;;;;5064935;28;20064;-82
2022/04/15 13:03:26;;;;;;;12.57;9.85;;;;;;;;;;5049391;28;20025;-81
2022/04/15 13:05:53;;;;;;;9.52;6.60;;;;;;;;;;5048675;28;20037;-82
2022/04/15 13:08:21;;;;;;;10.23;7.50;;;;;;;;;;5047135;28;20041;-83
2022/04/15 13:10:50;;;;;;;10.90;8.70;;;;;;;;;;5046090;28;20036;-83
2022/04/15 13:13:20;;;;;;;12.43;8.75;;;;;;;;;;5046998;28;20064;-83
2022/04/15 13:15:49;;;;;;;11.50;8.10;;;;;;;;;;5057306;28;20048;-83
2022/04/15 13:18:19;;;;;;;13.52;9.35;;;;;;;;;;5059352;28;20398;-82
2022/04/15 13:20:47;;;;;;;12.38;9.77;;;;;;;;;;5046044;28;20061;-82
2022/04/15 13:23:13;;;;;;;12.95;10.95;;;;;;;;;;5047166;28;20018;-81
2022/04/15 13:25:39;;;;;;;13.15;9.88;;;;;;;;;;5049375;28;20031;-82
2022/04/15 13:28:05;;;;;;;12.10;9.48;;;;;;;;;;5052093;28;20025;-82
2022/04/15 13:30:32;;;;;;;9.48;7.13;;;;;;;;;;5067503;28;20112;-84
2022/04/15 13:33:02;;;;;;;12.70;8.10;;;;;;;;;;5051375;28;20115;-84
2022/04/15 13:35:30;;;;;;;9.05;6.82;;;;;;;;;;5049979;28;20021;-84
2022/04/15 13:37:56;;;;;;;8.18;6.55;;;;;;;;;;5040788;28;20025;-83
2022/04/15 13:40:22;;;;;;;9.43;7.45;;;;;;;;;;5046074;28;20079;-84
2022/04/15 13:42:48;;;;;;;9.27;7.25;;;;;;;;;;5044795;28;20026;-84
2022/04/15 13:45:14;;;;;;;11.55;7.47;;;;;;;;;;5045845;28;20068;-84
2022/04/15 13:47:40;;;;;;;9.52;7.78;;;;;;;;;;5063861;28;20025;-84
2022/04/15 13:50:07;;;;;;;11.02;8.88;;;;;;;;;;5060939;28;20018;-84
2022/04/15 13:58:02;;;;;;;17.42;13.50;;;;;;;;;;5047980;28;20312;-85
2022/04/15 14:00:28;;;;;;;18.13;14.77;;;;;;;;;;5048615;28;20167;-84
2022/04/15 14:02:54;;;;;;;15.75;13.07;;;;;;;;;;5045962;28;20025;-84
2022/04/15 14:05:21;;;;;;;15.18;12.70;;;;;;;;;;5047676;28;20081;-85
2022/04/15 14:07:47;;;;;;;14.15;12.55;;;;;;;;;;5051668;28;20040;-85
2022/04/15 14:10:14;;;;;;;24.17;21.77;;;;;;;;;;5060288;28;20056;-84
2022/04/15 14:12:40;;;;;;;16.48;13.45;;;;;;;;;;5047687;28;20071;-85
2022/04/15 14:15:08;;;;;;;22.67;20.35;;;;;;;;;;5047084;28;20049;-85
2022/04/15 14:17:34;;;;;;;44.83;40.40;;;;;;;;;;5047476;28;20136;-85
2022/04/15 14:20:00;;;;;;;38.15;34.17;;;;;;;;;;5049680;28;20032;-85
2022/04/15 14:22:26;;;;;;;31.48;24.48;;;;;;;;;;5049389;28;20032;-84
2022/04/15 14:24:52;;;;;;;13.75;11.45;;;;;;;;;;5067775;28;20033;-84
2022/04/15 14:27:18;;;;;;;13.45;11.50;;;;;;;;;;5068861;28;20084;-84
2022/04/15 14:29:45;;;;;;;15.05;12.68;;;;;;;;;;5068833;28;20052;-85
2022/04/15 14:32:11;;;;;;;14.30;11.65;;;;;;;;;;5047488;28;20032;-85
2022/04/15 14:34:38;;;;;;;14.52;12.40;;;;;;;;;;5066251;28;20029;-85
2022/04/15 14:37:04;;;;;;;20.70;18.55;;;;;;;;;;5068055;28;20084;-86
2022/04/15 14:39:30;;;;;;;14.48;11.55;;;;;;;;;;5066321;28;20021;-84
2022/04/15 14:41:57;;;;;;;15.93;11.98;;;;;;;;;;5050956;28;20048;-85
2022/04/15 14:44:23;;;;;;;15.35;11.50;;;;;;;;;;5047993;28;20028;-84